Time;durP1;ratioP1;P1;durP2;ratioP2;P2;SDS_P1;SDS_P2;PMS_P1;PMS_P2;Temp;Humidity;BMP_temperature;BMP_pressure;BME280_temperature;BME280_humidity;BME280_pressure;Samples;Min_cycle;Max_cycle;Signal;HPM_P1;HPM_P2
2023/06/11 00:02:12;;;;;;;;;31.67;25.67;;;;;25.48;40.39;100959.31;5018553;28;45583;-67
2023/06/11 00:04:38;;;;;;;;;27.33;25.33;;;;;25.51;40.00;100969.00;5018493;28;45628;-67
2023/06/11 00:07:05;;;;;;;;;3.00;3.00;;;;;25.45;40.52;100954.19;5018578;28;45336;-67
2023/06/11 00:09:30;;;;;;;;;27.00;24.33;;;;;25.48;40.26;100969.28;5018690;28;45338;-67
2023/06/11 00:11:56;;;;;;;;;27.00;19.67;;;;;25.42;40.30;100959.00;5018161;28;46282;-67
2023/06/11 00:14:23;;;;;;;;;28.00;24.00;;;;;25.44;40.59;100965.09;5018456;28;45258;-67
2023/06/11 00:16:49;;;;;;;;;27.00;26.33;;;;;25.36;40.63;100954.97;5018463;28;45244;-67
2023/06/11 00:19:15;;;;;;;;;26.00;26.00;;;;;25.28;40.10;100943.91;5018359;28;45544;-67
2023/06/11 00:21:50;;;;;;;;;25.67;24.67;;;;;25.27;40.81;100951.16;5017974;28;45498;-67
2023/06/11 00:24:15;;;;;;;;;26.00;22.67;;;;;25.28;40.52;100954.69;5018283;28;45365;-67
2023/06/11 00:26:42;;;;;;;;;26.00;24.33;;;;;25.28;41.14;100958.22;5018072;28;45307;-67
2023/06/11 00:29:08;;;;;;;;;30.33;26.67;;;;;25.17;41.02;100952.88;5023079;28;45424;-67
2023/06/11 00:31:33;;;;;;;;;31.00;25.67;;;;;25.15;40.63;100953.00;5037890;28;45278;-67
2023/06/11 00:34:02;;;;;;;;;24.67;24.67;;;;;25.18;41.03;100958.16;5037809;28;45390;-67
2023/06/11 00:36:29;;;;;;;;;27.67;25.67;;;;;25.13;41.32;100954.13;5036822;28;45203;-67
2023/06/11 00:38:55;;;;;;;;;27.00;24.67;;;;;25.07;41.12;100957.31;5038127;28;45548;-67
2023/06/11 00:41:21;;;;;;;;;27.67;23.67;;;;;25.07;41.00;100960.84;5069894;28;46414;-67
2023/06/11 00:43:52;;;;;;;;;22.33;22.33;;;;;25.08;40.90;100965.28;5035949;28;45420;-67
2023/06/11 00:46:18;;;;;;;;;26.00;25.00;;;;;24.84;41.15;100930.38;5037686;28;45188;-67
2023/06/11 00:48:44;;;;;;;;;24.33;23.67;;;;;24.95;41.42;100951.94;5037873;28;45184;-67
2023/06/11 00:51:11;;;;;;;;;24.33;21.00;;;;;24.98;41.83;100962.44;5037447;28;47419;-67
2023/06/11 00:53:36;;;;;;;;;27.33;25.67;;;;;24.82;41.48;100943.13;5037440;28;45370;-68
2023/06/11 00:56:02;;;;;;;;;29.33;25.33;;;;;24.85;41.81;100953.66;5037684;28;45330;-67
2023/06/11 00:58:29;;;;;;;;;27.67;25.67;;;;;24.74;42.23;100943.72;5037794;28;45258;-67
2023/06/11 01:00:57;;;;;;;;;21.67;21.67;;;;;24.83;42.46;100969.06;5037079;28;46661;-67
2023/06/11 01:03:26;;;;;;;;;20.33;20.33;;;;;24.76;42.11;100949.84;5037617;28;45361;-67
2023/06/11 01:06:02;;;;;;;;;23.33;23.33;;;;;24.70;42.08;100954.84;5030225;28;45461;-67
2023/06/11 01:08:31;;;;;;;;;28.33;24.33;;;;;24.70;41.99;100955.69;5022427;28;45530;-67
2023/06/11 01:10:59;;;;;;;;;25.67;24.00;;;;;24.62;42.91;100956.31;5037103;28;47539;-67
2023/06/11 01:13:25;;;;;;;;;30.67;26.33;;;;;24.65;42.71;100956.06;5037292;28;45448;-67
2023/06/11 01:15:55;;;;;;;;;27.00;25.67;;;;;24.60;42.83;100955.59;5037357;28;45226;-67
2023/06/11 01:18:25;;;;;;;;;23.00;23.00;;;;;24.49;43.07;100951.00;5037645;28;45250;-66
2023/06/11 01:21:01;;;;;;;;;26.33;24.00;;;;;24.57;42.49;100963.84;5037081;28;45417;-67
2023/06/11 01:23:41;;;;;;;;;30.00;28.67;;;;;24.54;42.90;100960.56;5037168;28;45361;-67
2023/06/11 01:26:42;;;;;;;;;28.67;27.67;;;;;24.52;43.13;100964.22;5036964;28;45385;-66
2023/06/11 01:29:09;;;;;;;;;28.67;25.00;;;;;24.41;42.84;100942.69;5037009;28;45365;-66
2023/06/11 01:31:40;;;;;;;;;24.67;24.67;;;;;24.42;43.48;100960.53;5036992;28;45382;-67
2023/06/11 01:34:06;;;;;;;;;21.67;21.67;;;;;24.40;43.11;100967.88;5036793;28;45353;-67
2023/06/11 01:36:36;;;;;;;;;28.67;27.67;;;;;24.33;43.82;100964.81;5037065;28;45299;-67
2023/06/11 01:39:02;;;;;;;;;25.67;25.67;;;;;24.29;43.64;100970.56;5037418;28;45226;-67
2023/06/11 01:41:28;;;;;;;;;29.33;28.33;;;;;24.21;44.14;100967.59;5035642;28;45526;-67
2023/06/11 01:43:53;;;;;;;;;26.67;23.67;;;;;24.14;43.97;100961.84;5035181;28;45347;-67
2023/06/11 01:46:19;;;;;;;;;28.00;26.33;;;;;24.14;44.48;100967.22;5036853;28;45241;-67
2023/06/11 01:48:44;;;;;;;;;27.67;27.67;;;;;24.09;43.96;100962.19;5037254;28;45195;-67
2023/06/11 01:51:09;;;;;;;;;25.00;23.67;;;;;24.02;44.24;100958.25;5037004;28;45247;-67
2023/06/11 01:53:35;;;;;;;;;28.00;25.67;;;;;24.01;44.33;100959.22;5036361;28;45244;-67
2023/06/11 01:56:00;;;;;;;;;27.00;24.00;;;;;23.98;44.19;100976.44;5038742;28;45841;-67
2023/06/11 01:58:26;;;;;;;;;26.33;23.67;;;;;23.96;44.80;100966.78;5040662;28;45393;-67
2023/06/11 02:00:51;;;;;;;;;28.67;26.00;;;;;23.92;44.93;100959.91;5040040;28;45567;-67
2023/06/11 02:03:17;;;;;;;;;25.33;24.00;;;;;23.90;45.04;100962.72;5040456;28;45324;-67
2023/06/11 02:05:43;;;;;;;;;34.67;29.33;;;;;23.86;45.20;100966.63;5040233;28;45328;-67
2023/06/11 02:08:10;;;;;;;;;27.00;27.00;;;;;23.78;45.07;100966.31;5040492;28;45373;-67
2023/06/11 02:10:35;;;;;;;;;26.33;23.67;;;;;23.82;45.45;100974.03;5040163;28;45363;-67
2023/06/11 02:13:01;;;;;;;;;24.00;23.33;;;;;23.75;45.52;100955.78;5039945;28;45388;-67
2023/06/11 02:15:26;;;;;;;;;29.00;25.33;;;;;23.80;45.30;100967.91;5040061;28;45238;-67
2023/06/11 02:17:51;;;;;;;;;27.00;24.67;;;;;23.73;45.42;100966.66;5039079;28;45418;-67
2023/06/11 02:20:17;;;;;;;;;28.33;25.67;;;;;23.57;45.59;100932.00;5031944;28;47075;-67
2023/06/11 02:22:43;;;;;;;;;25.00;24.67;;;;;23.65;45.49;100959.16;5040084;28;45448;-67
2023/06/11 02:25:08;;;;;;;;;28.00;28.00;;;;;23.68;45.59;100965.28;5039934;28;45315;-67
2023/06/11 02:27:34;;;;;;;;;30.33;26.33;;;;;23.63;46.04;100962.94;5032642;28;45535;-67
2023/06/11 02:30:00;;;;;;;;;26.00;26.00;;;;;23.64;46.07;100970.03;5019870;28;46521;-67
2023/06/11 02:32:26;;;;;;;;;31.33;27.00;;;;;23.53;46.20;100956.53;5019857;28;45241;-67
2023/06/11 02:34:51;;;;;;;;;29.33;27.67;;;;;23.54;46.00;100960.94;5024662;28;45354;-67
2023/06/11 02:37:16;;;;;;;;;28.00;26.33;;;;;23.23;46.67;100923.72;5039817;28;45456;-67
2023/06/11 02:39:42;;;;;;;;;28.33;26.33;;;;;23.34;46.46;100951.63;5039808;28;46555;-67
2023/06/11 02:42:07;;;;;;;;;27.00;25.00;;;;;23.36;47.09;100957.78;5039636;28;45328;-67
2023/06/11 02:44:34;;;;;;;;;34.33;29.67;;;;;23.43;47.30;100962.59;5039469;28;45349;-67
2023/06/11 02:47:00;;;;;;;;;38.67;27.33;;;;;23.42;46.60;100970.75;5038149;28;45325;-67
2023/06/11 02:49:25;;;;;;;;;25.67;25.67;;;;;23.34;47.14;100963.28;5019467;28;45361;-66
2023/06/11 02:51:50;;;;;;;;;35.33;28.67;;;;;23.38;47.40;100969.25;5019914;28;45366;-67
2023/06/11 02:54:16;;;;;;;;;28.33;27.33;;;;;23.27;47.07;100952.09;5038334;28;45440;-67
2023/06/11 02:56:41;;;;;;;;;27.33;27.33;;;;;23.26;47.33;100960.28;5021084;28;45394;-66
2023/06/11 02:59:06;;;;;;;;;35.00;26.67;;;;;23.26;47.13;100960.28;5019457;28;45590;-67
2023/06/11 03:01:32;;;;;;;;;26.67;25.00;;;;;23.20;47.21;100961.56;5019448;28;45353;-67
2023/06/11 03:03:57;;;;;;;;;28.33;25.33;;;;;23.20;47.50;100968.78;5019545;28;45346;-67
2023/06/11 03:06:22;;;;;;;;;26.67;26.00;;;;;22.94;47.51;100918.63;5019076;28;45286;-67
2023/06/11 03:08:48;;;;;;;;;33.33;30.67;;;;;23.21;47.73;100963.31;5037016;28;46314;-67
2023/06/11 03:11:14;;;;;;;;;26.33;25.33;;;;;23.22;47.74;100961.47;5039333;28;45346;-67
2023/06/11 03:13:40;;;;;;;;;28.67;25.67;;;;;23.19;47.67;100949.09;5039272;28;45396;-66
2023/06/11 03:16:05;;;;;;;;;24.00;23.67;;;;;23.21;47.48;100957.09;5039113;28;45404;-66
2023/06/11 03:18:30;;;;;;;;;31.67;29.00;;;;;23.14;47.65;100950.44;5039257;28;45428;-67
2023/06/11 03:20:56;;;;;;;;;29.00;26.00;;;;;23.15;48.13;100960.19;5046975;28;45565;-67
2023/06/11 03:23:21;;;;;;;;;27.33;26.67;;;;;23.17;48.08;100967.19;5046724;28;45710;-67
2023/06/11 03:25:47;;;;;;;;;30.33;29.00;;;;;23.17;48.09;100963.63;5039100;28;45416;-67
2023/06/11 03:28:12;;;;;;;;;28.00;26.67;;;;;23.06;48.20;100949.13;5038829;28;45648;-66
2023/06/11 03:30:37;;;;;;;;;32.67;24.33;;;;;23.04;48.67;100956.41;5033063;28;45381;-67
2023/06/11 03:33:03;;;;;;;;;23.33;23.33;;;;;23.06;48.85;100969.75;5036321;28;45389;-67
2023/06/11 03:35:28;;;;;;;;;30.33;28.33;;;;;23.03;48.43;100961.91;5047109;28;45590;-67
2023/06/11 03:37:53;;;;;;;;;30.00;27.33;;;;;22.95;48.36;100962.47;5038584;28;46246;-67
2023/06/11 03:40:19;;;;;;;;;29.67;29.00;;;;;22.95;47.97;100973.22;5039118;28;45400;-67
2023/06/11 03:42:44;;;;;;;;;34.33;30.67;;;;;22.80;48.49;100952.81;5046570;28;45383;-67
2023/06/11 03:45:10;;;;;;;;;27.67;25.67;;;;;22.81;48.71;100963.44;5038569;28;45234;-67
2023/06/11 03:47:35;;;;;;;;;28.67;26.00;;;;;22.76;49.12;100963.78;5038705;28;45394;-67
2023/06/11 03:50:00;;;;;;;;;33.00;28.67;;;;;22.78;49.33;100958.28;5038242;28;45333;-67
2023/06/11 03:52:26;;;;;;;;;27.00;27.00;;;;;22.74;49.13;100956.78;5039140;28;45415;-67
2023/06/11 03:54:51;;;;;;;;;28.67;27.00;;;;;22.73;49.63;100965.84;5038968;28;45454;-67
2023/06/11 03:57:18;;;;;;;;;29.67;28.00;;;;;22.71;49.43;100960.56;5045940;28;45438;-67
2023/06/11 03:59:44;;;;;;;;;30.33;26.67;;;;;22.71;49.75;100963.25;5046216;28;45504;-67
2023/06/11 04:02:09;;;;;;;;;32.33;30.00;;;;;22.65;49.22;100962.81;5038330;28;45393;-67
2023/06/11 04:04:36;;;;;;;;;25.33;25.33;;;;;22.60;50.05;100973.88;5037425;28;45218;-67
2023/06/11 04:07:02;;;;;;;;;32.33;30.33;;;;;22.47;49.80;100968.50;5036825;28;46985;-67
2023/06/11 04:09:27;;;;;;;;;32.33;31.00;;;;;22.49;49.96;100971.94;5024115;28;45330;-67
2023/06/11 04:11:52;;;;;;;;;35.33;31.33;;;;;22.47;50.13;100965.81;5040249;28;45451;-67
2023/06/11 04:14:18;;;;;;;;;30.67;25.67;;;;;22.45;49.97;100956.16;5046473;28;45549;-67
2023/06/11 04:16:43;;;;;;;;;28.00;26.00;;;;;22.56;50.19;100967.84;5045931;28;46492;-67
2023/06/11 04:19:08;;;;;;;;;30.33;25.67;;;;;22.51;50.33;100961.97;5044782;28;45435;-67
2023/06/11 04:21:34;;;;;;;;;30.33;25.33;;;;;22.52;50.50;100960.13;5040898;28;45487;-67
2023/06/11 04:24:00;;;;;;;;;30.33;28.33;;;;;22.56;50.46;100970.53;5043810;28;45582;-67
2023/06/11 04:26:25;;;;;;;;;35.00;32.00;;;;;22.47;50.38;100957.78;5045960;28;46096;-67
2023/06/11 04:28:52;;;;;;;;;30.67;26.67;;;;;22.50;51.05;100979.03;5038092;28;45816;-67
2023/06/11 04:31:18;;;;;;;;;31.33;28.33;;;;;22.36;50.99;100954.97;5053081;28;45402;-67
2023/06/11 04:33:45;;;;;;;;;29.67;28.33;;;;;22.42;51.08;100965.28;5038712;28;45613;-67
2023/06/11 04:36:11;;;;;;;;;32.67;28.33;;;;;22.42;50.98;100960.78;5045661;28;45702;-67
2023/06/11 04:38:38;;;;;;;;;29.00;26.00;;;;;22.62;50.71;100971.09;5038116;28;45797;-67
2023/06/11 04:41:05;;;;;;;;;36.00;32.33;;;;;22.65;50.50;100968.19;5036940;28;45448;-66
2023/06/11 04:43:33;;;;;;;;;28.00;26.33;;;;;22.71;50.50;100971.31;5029974;28;45921;-67
2023/06/11 04:46:03;;;;;;;;;31.00;27.67;;;;;22.72;50.13;100970.31;5045230;28;45936;-67
2023/06/11 04:48:31;;;;;;;;;35.50;29.00;;;;;22.79;50.48;100976.13;5045318;28;45355;-67
2023/06/11 04:51:00;;;;;;;;;29.33;23.33;;;;;22.77;50.01;100978.03;5030580;28;45171;-66
2023/06/11 04:53:27;;;;;;;;;27.67;25.33;;;;;22.65;49.94;100952.06;5045741;28;45657;-67
2023/06/11 04:55:55;;;;;;;;;26.67;26.33;;;;;22.85;49.94;100980.22;5048250;28;46663;-67
2023/06/11 04:58:21;;;;;;;;;31.00;27.67;;;;;22.85;50.02;100981.06;5048668;28;45510;-67
2023/06/11 05:00:51;;;;;;;;;25.00;25.00;;;;;22.96;49.52;100983.00;5046017;28;45158;-66
2023/06/11 05:03:18;;;;;;;;;35.33;28.00;;;;;22.76;49.90;100953.03;5045843;28;45429;-67
2023/06/11 05:05:51;;;;;;;;;34.67;27.33;;;;;23.00;49.47;100971.03;5045018;28;46665;-66
2023/06/11 05:08:21;;;;;;;;;27.67;23.33;;;;;23.17;49.37;100993.19;5050913;28;45288;-67
2023/06/11 05:10:47;;;;;;;;;27.33;25.00;;;;;23.22;49.28;100982.97;5045965;28;46672;-67
2023/06/11 05:13:13;;;;;;;;;31.67;26.33;;;;;23.25;49.25;100980.91;5037746;28;46683;-67
2023/06/11 05:15:39;;;;;;;;;27.00;23.00;;;;;23.29;49.25;100984.22;5045138;28;46642;-66
2023/06/11 05:18:04;;;;;;;;;23.67;22.33;;;;;23.33;49.00;100991.09;5033763;28;45402;-66
2023/06/11 05:20:30;;;;;;;;;32.67;26.33;;;;;23.47;48.96;100990.94;5025300;28;45265;-66
2023/06/11 05:23:00;;;;;;;;;29.67;23.67;;;;;23.46;48.11;100967.72;5052943;28;45761;-67
2023/06/11 05:25:28;;;;;;;;;24.33;23.33;;;;;23.61;48.03;100981.88;5044661;28;46516;-66
2023/06/11 05:27:57;;;;;;;;;23.00;20.33;;;;;23.58;48.26;100982.09;5039242;28;45462;-66
2023/06/11 05:30:25;;;;;;;;;31.33;24.67;;;;;23.66;47.56;100989.59;5041432;28;45371;-67
2023/06/11 05:32:51;;;;;;;;;22.67;22.00;;;;;23.75;47.56;101004.19;5052746;28;45308;-67
2023/06/11 05:35:17;;;;;;;;;21.67;20.00;;;;;23.79;47.27;101001.16;5049529;28;46492;-67
2023/06/11 05:37:43;;;;;;;;;27.00;25.67;;;;;23.76;47.13;100990.63;5047046;28;45247;-66
2023/06/11 05:40:09;;;;;;;;;21.67;21.67;;;;;23.82;47.19;100994.69;5051269;28;45541;-66
2023/06/11 05:42:34;;;;;;;;;24.00;21.67;;;;;23.90;47.30;101000.38;5028877;28;45239;-66
2023/06/11 05:45:00;;;;;;;;;20.33;18.33;;;;;23.95;47.05;100998.19;5044016;28;45373;-67
2023/06/11 05:47:25;;;;;;;;;24.33;22.33;;;;;23.98;47.17;101005.19;5036834;28;45242;-67
2023/06/11 05:49:50;;;;;;;;;24.33;23.33;;;;;23.97;46.96;100981.94;5044460;28;45508;-66
2023/06/11 05:52:16;;;;;;;;;23.67;20.00;;;;;24.08;46.38;101000.81;5036785;28;45479;-67
2023/06/11 05:54:41;;;;;;;;;28.33;22.33;;;;;24.11;46.70;100997.06;5035545;28;46626;-66
2023/06/11 05:57:25;;;;;;;;;20.00;20.00;;;;;24.19;46.49;100996.47;5021878;28;45302;-67
2023/06/11 05:59:51;;;;;;;;;22.33;21.00;;;;;24.26;46.47;100995.00;5042492;28;45249;-67
2023/06/11 06:02:17;;;;;;;;;27.00;23.67;;;;;24.37;46.25;100994.16;5040069;28;45484;-67
2023/06/11 06:04:45;;;;;;;;;18.00;17.33;;;;;24.42;46.40;101002.75;5036541;28;46182;-67
2023/06/11 06:07:10;;;;;;;;;19.00;19.00;;;;;24.38;46.05;100996.75;5044081;28;45339;-67
2023/06/11 06:09:36;;;;;;;;;20.67;20.67;;;;;24.44;45.92;101009.75;5043136;28;45441;-67
2023/06/11 06:12:01;;;;;;;;;27.00;23.67;;;;;24.46;45.76;101010.47;5040734;28;45565;-67
2023/06/11 06:14:26;;;;;;;;;27.00;23.67;;;;;24.42;45.77;101005.47;5022332;28;45610;-67
2023/06/11 06:16:52;;;;;;;;;23.00;21.67;;;;;24.31;45.93;100979.34;5033255;28;45306;-67
2023/06/11 06:19:17;;;;;;;;;23.33;23.33;;;;;24.75;45.76;101009.22;5044664;28;45299;-66
2023/06/11 06:21:42;;;;;;;;;25.67;23.00;;;;;24.91;45.02;101008.88;5044558;28;45285;-67
2023/06/11 06:24:10;;;;;;;;;24.00;22.33;;;;;24.81;44.69;100998.81;5036577;28;46463;-67
2023/06/11 06:26:37;;;;;;;;;27.33;24.00;;;;;24.82;45.14;101013.16;5042025;28;45225;-67
2023/06/11 06:29:02;;;;;;;;;26.67;22.33;;;;;24.70;45.13;101006.88;5036325;28;45436;-67
2023/06/11 06:31:28;;;;;;;;;26.33;23.33;;;;;24.72;45.39;101006.75;5044191;28;45296;-67
2023/06/11 06:33:53;;;;;;;;;23.33;21.67;;;;;24.73;46.14;101012.00;5034267;28;46427;-67
2023/06/11 06:36:21;;;;;;;;;21.33;21.33;;;;;24.73;45.71;101003.09;5039440;28;45295;-67
2023/06/11 06:38:47;;;;;;;;;26.33;22.33;;;;;24.65;46.26;100990.22;5047908;28;45308;-67
2023/06/11 06:41:12;;;;;;;;;25.00;22.33;;;;;24.60;45.29;100973.56;5037168;28;45783;-67
2023/06/11 06:43:38;;;;;;;;;22.33;22.33;;;;;24.90;45.64;101017.94;5046742;28;46322;-66
2023/06/11 06:46:03;;;;;;;;;26.33;24.00;;;;;24.94;45.76;101020.25;5047306;28;45446;-67
2023/06/11 06:48:28;;;;;;;;;19.67;19.67;;;;;24.99;45.89;101015.38;5039844;28;45452;-67
2023/06/11 06:50:54;;;;;;;;;29.33;24.67;;;;;25.05;45.69;101010.44;5054863;28;45413;-67
2023/06/11 06:53:19;;;;;;;;;22.67;21.67;;;;;25.02;46.01;101006.16;5047545;28;45496;-67
2023/06/11 06:55:45;;;;;;;;;24.67;20.33;;;;;25.11;45.77;101013.53;5039688;28;45443;-67
2023/06/11 06:58:10;;;;;;;;;26.33;21.33;;;;;25.17;45.52;101020.25;5040739;28;45279;-66
2023/06/11 07:00:36;;;;;;;;;20.00;20.00;;;;;25.19;46.24;101020.97;5058454;28;45360;-67
2023/06/11 07:03:01;;;;;;;;;25.00;24.33;;;;;25.26;45.74;101032.97;5042550;28;45565;-67
2023/06/11 07:05:27;;;;;;;;;20.00;20.00;;;;;25.34;45.84;101027.00;5041059;28;45361;-67
2023/06/11 07:07:53;;;;;;;;;25.00;21.67;;;;;25.41;45.34;101028.22;5044357;28;45423;-67
2023/06/11 07:10:18;;;;;;;;;25.33;24.67;;;;;25.32;45.21;101007.41;5042233;28;45336;-66
2023/06/11 07:12:43;;;;;;;;;23.00;20.00;;;;;25.67;45.06;101033.31;5044940;28;46469;-69
2023/06/11 07:15:10;;;;;;;;;21.67;21.67;;;;;25.75;45.15;101041.66;5059890;28;45416;-69
2023/06/11 07:17:35;;;;;;;;;23.00;22.67;;;;;25.94;44.62;101034.72;5039191;28;45362;-72
2023/06/11 07:20:01;;;;;;;;;25.67;19.67;;;;;26.54;43.87;101043.19;5027797;28;45302;-70
2023/06/11 07:22:26;;;;;;;;;18.00;18.00;;;;;26.65;43.02;101036.84;5019140;28;46506;-70
2023/06/11 07:24:51;;;;;;;;;18.33;17.33;;;;;26.61;43.14;101043.53;5026184;28;45501;-67
2023/06/11 07:27:16;;;;;;;;;23.67;18.33;;;;;26.81;43.13;101041.81;5037888;28;45325;-68
2023/06/11 07:29:42;;;;;;;;;24.00;18.67;;;;;27.56;41.27;101037.88;5037658;28;45388;-67
2023/06/11 07:32:08;;;;;;;;;19.33;17.33;;;;;27.60;40.54;101044.72;5036562;28;47808;-66
2023/06/11 07:34:33;;;;;;;;;23.00;20.67;;;;;27.39;41.26;101028.59;5037532;28;45412;-66
2023/06/11 07:36:59;;;;;;;;;21.33;21.33;;;;;27.38;41.13;101036.84;5037549;28;45364;-66
2023/06/11 07:39:24;;;;;;;;;20.00;20.00;;;;;27.24;41.33;101030.75;5037862;28;45449;-69
2023/06/11 07:41:49;;;;;;;;;21.67;20.33;;;;;27.14;41.82;101020.91;5035933;28;45439;-69
2023/06/11 07:44:15;;;;;;;;;19.00;19.00;;;;;27.08;41.79;101036.69;5035040;28;46009;-70
2023/06/11 07:46:40;;;;;;;;;19.67;19.67;;;;;26.99;41.46;101032.09;5037196;28;45343;-67
2023/06/11 07:49:06;;;;;;;;;18.33;18.33;;;;;26.96;41.93;101037.78;5037740;28;45342;-70
2023/06/11 07:51:32;;;;;;;;;19.00;19.00;;;;;26.91;42.17;101035.47;5036893;28;46125;-68
2023/06/11 07:53:58;;;;;;;;;23.00;22.00;;;;;26.85;41.61;101024.34;5031784;28;45504;-68
2023/06/11 07:56:24;;;;;;;;;22.00;19.33;;;;;27.02;41.94;101033.69;5017468;28;45945;-73
2023/06/11 07:58:50;;;;;;;;;21.33;19.33;;;;;27.17;42.12;101024.22;5017401;28;45543;-71
2023/06/11 08:01:15;;;;;;;;;18.33;17.33;;;;;27.34;41.29;101028.13;5016965;28;46498;-71
2023/06/11 08:03:41;;;;;;;;;20.67;19.00;;;;;27.40;41.71;101032.13;5017254;28;45388;-73
2023/06/11 08:06:07;;;;;;;;;18.33;17.67;;;;;27.54;41.59;101028.19;5017110;28;45685;-71
2023/06/11 08:08:33;;;;;;;;;17.67;16.00;;;;;27.52;41.08;101027.47;5017408;28;45427;-69
2023/06/11 08:10:58;;;;;;;;;18.33;16.67;;;;;27.50;41.69;101024.91;5017022;28;46003;-71
2023/06/11 08:13:24;;;;;;;;;19.67;19.00;;;;;27.54;41.53;101029.03;5016974;28;45448;-69
2023/06/11 08:15:49;;;;;;;;;21.00;20.00;;;;;27.62;41.65;101031.91;5031959;28;45539;-70
2023/06/11 08:18:14;;;;;;;;;20.33;19.33;;;;;27.62;40.92;101023.81;5035910;28;45470;-68
2023/06/11 08:20:40;;;;;;;;;24.00;21.33;;;;;27.67;40.57;101036.06;5033007;28;45381;-69
2023/06/11 08:23:05;;;;;;;;;21.67;20.33;;;;;27.58;41.10;101019.66;5035029;28;45467;-72
2023/06/11 08:25:31;;;;;;;;;21.00;18.33;;;;;27.59;41.02;101015.97;5017642;28;45355;-68
2023/06/11 08:27:57;;;;;;;;;22.33;20.00;;;;;28.02;40.92;101030.13;5020004;28;45444;-70
2023/06/11 08:30:22;;;;;;;;;19.00;17.67;;;;;29.01;39.29;101019.00;5015316;28;46338;-69
2023/06/11 08:32:47;;;;;;;;;20.67;19.00;;;;;29.23;38.95;101016.09;5016608;28;45698;-66
2023/06/11 08:35:13;;;;;;;;;20.67;20.67;;;;;29.19;38.82;101020.91;5016576;28;45457;-68
2023/06/11 08:37:38;;;;;;;;;21.00;21.00;;;;;29.04;38.65;101009.72;5022328;28;45484;-67
2023/06/11 08:40:08;;;;;;;;;25.67;24.00;;;;;29.18;38.77;101003.78;5029194;28;46417;-68
2023/06/11 08:42:34;;;;;;;;;22.00;22.00;;;;;29.45;38.49;101022.94;5024894;28;45402;-70
2023/06/11 08:44:59;;;;;;;;;23.00;21.67;;;;;29.55;38.40;101017.47;5016313;28;45386;-69
2023/06/11 08:47:29;;;;;;;;;23.33;22.67;;;;;29.65;38.32;101023.69;5027259;28;45650;-69
2023/06/11 08:49:55;;;;;;;;;22.00;19.00;;;;;29.51;38.31;101016.91;5029063;28;47375;-69
2023/06/11 08:52:23;;;;;;;;;21.67;17.33;;;;;29.39;38.27;101023.56;5034396;28;45827;-69
2023/06/11 08:54:48;;;;;;;;;19.00;19.00;;;;;29.25;38.72;101025.78;5035487;28;45357;-69
2023/06/11 08:57:14;;;;;;;;;18.33;17.00;;;;;29.25;39.29;101024.91;5033632;28;45388;-68
2023/06/11 08:59:40;;;;;;;;;21.00;20.00;;;;;29.22;39.21;101017.06;5035447;28;45501;-68
2023/06/11 09:02:05;;;;;;;;;20.33;18.00;;;;;29.13;39.02;100997.97;5035384;28;45816;-68
2023/06/11 09:04:31;;;;;;;;;22.00;21.33;;;;;29.18;39.00;101017.34;5028917;28;45571;-68
2023/06/11 09:07:00;;;;;;;;;24.00;22.33;;;;;29.14;38.88;101024.06;5022246;28;45670;-69
2023/06/11 09:09:26;;;;;;;;;17.33;17.00;;;;;29.04;39.20;101012.41;5029456;28;46463;-69
2023/06/11 09:11:52;;;;;;;;;23.67;22.00;;;;;29.03;39.00;101012.56;5029512;28;45444;-69
2023/06/11 09:14:17;;;;;;;;;22.33;21.00;;;;;29.11;39.34;101009.97;5032091;28;45396;-69
2023/06/11 09:16:45;;;;;;;;;27.00;20.00;;;;;29.26;39.05;101008.50;5029459;28;45246;-68
2023/06/11 09:19:18;;;;;;;;;20.00;17.67;;;;;29.50;38.72;101018.78;5032852;28;46945;-68
2023/06/11 09:21:52;;;;;;;;;18.33;18.33;;;;;29.72;37.89;101022.06;5033019;28;45542;-68
2023/06/11 09:24:19;;;;;;;;;20.33;20.33;;;;;29.75;37.22;101019.03;5036905;28;45419;-68
2023/06/11 09:26:52;;;;;;;;;18.00;17.00;;;;;29.74;37.77;101011.06;5037472;28;45342;-67
2023/06/11 09:29:17;;;;;;;;;19.00;18.33;;;;;29.70;38.41;101013.25;5036714;28;46081;-67
2023/06/11 09:31:42;;;;;;;;;18.67;18.67;;;;;29.94;37.51;100996.34;5036621;28;45439;-67
2023/06/11 09:34:12;;;;;;;;;22.00;19.67;;;;;30.65;36.83;101010.00;5034554;28;45559;-67
2023/06/11 09:36:37;;;;;;;;;21.00;21.00;;;;;30.91;35.66;101010.81;5037227;28;45480;-68
2023/06/11 09:39:03;;;;;;;;;18.00;17.00;;;;;31.57;35.85;101013.88;5037032;28;45417;-71
2023/06/11 09:41:29;;;;;;;;;22.33;20.00;;;;;33.20;33.39;101021.28;5031285;28;45327;-72
2023/06/11 09:43:56;;;;;;;;;21.33;20.67;;;;;35.14;31.17;101004.69;5018664;28;45396;-70
2023/06/11 09:46:22;;;;;;;;;21.00;20.67;;;;;37.40;29.46;101029.69;5027425;28;45467;-65
2023/06/11 09:48:48;;;;;;;;;18.33;18.33;;;;;39.57;26.62;101019.19;5034652;28;46615;-67
2023/06/11 09:51:21;;;;;;;;;18.33;18.00;;;;;41.47;24.40;101027.22;5034007;28;45831;-67
2023/06/11 09:53:49;;;;;;;;;21.50;20.25;;;;;43.08;23.22;101030.91;5032349;28;45431;-67
2023/06/11 09:56:15;;;;;;;;;17.50;17.50;;;;;44.15;21.95;101003.47;5025278;28;45381;-68
2023/06/11 09:58:41;;;;;;;;;18.75;18.75;;;;;45.45;20.91;101038.34;5015664;28;45450;-68
2023/06/11 10:01:07;;;;;;;;;23.00;19.00;;;;;46.45;21.81;101031.44;5015559;28;46022;-67
2023/06/11 10:03:32;;;;;;;;;20.25;18.00;;;;;47.04;18.85;101033.16;5015439;28;45466;-67
2023/06/11 10:05:59;;;;;;;;;15.00;15.00;;;;;47.75;18.82;101030.88;5027866;28;45540;-66
2023/06/11 10:08:30;;;;;;;;;19.00;19.00;;;;;48.42;17.72;101042.81;5025917;28;45720;-67
2023/06/11 10:11:00;;;;;;;;;15.00;15.00;;;;;49.26;17.55;101035.88;5024903;28;45361;-66
2023/06/11 10:13:30;;;;;;;;;15.00;15.00;;;;;49.85;17.22;101042.47;5033249;28;45458;-69
2023/06/11 10:15:59;;;;;;;;;17.00;17.00;;;;;50.15;15.53;101027.38;5025363;28;45400;-69
2023/06/11 10:18:28;;;;;;;;;17.00;17.00;;;;;50.40;15.31;101031.06;5032124;28;45581;-67
2023/06/11 10:20:58;;;;;;;;;16.75;15.00;;;;;50.87;15.05;101036.97;5038711;28;45324;-69
2023/06/11 10:23:36;;;;;;;;;16.50;15.25;;;;;51.25;15.06;101044.63;5036022;28;45367;-70
2023/06/11 10:26:01;;;;;;;;;16.00;16.00;;;;;51.44;15.00;101037.03;5027679;28;45474;-68
2023/06/11 10:28:49;;;;;;;;;15.00;15.00;;;;;51.53;15.66;101035.22;5026006;28;47032;-70
2023/06/11 10:31:28;;;;;;;;;14.25;14.25;;;;;51.80;14.63;101032.84;5024261;28;45571;-70
2023/06/11 10:34:01;;;;;;;;;12.25;12.25;;;;;51.78;15.10;101035.97;5018935;28;45437;-71
2023/06/11 10:36:35;;;;;;;;;14.25;14.25;;;;;51.42;14.45;101042.13;5018645;28;45829;-68
2023/06/11 10:39:05;;;;;;;;;14.50;14.50;;;;;51.66;14.47;101036.41;5018102;28;45532;-68
2023/06/11 10:41:30;;;;;;;;;15.00;13.50;;;;;51.91;13.72;101033.50;5018420;28;45460;-68
2023/06/11 10:43:59;;;;;;;;;11.75;11.75;;;;;51.82;14.18;101034.19;5022425;28;45464;-68
2023/06/11 10:46:24;;;;;;;;;10.75;10.75;;;;;51.76;13.91;101031.78;5033196;28;45321;-68
2023/06/11 10:48:54;;;;;;;;;14.00;12.00;;;;;51.72;14.03;101032.41;5037599;28;45558;-68
2023/06/11 10:51:21;;;;;;;;;11.50;11.50;;;;;51.80;14.64;101039.28;5038162;28;45769;-68
2023/06/11 10:53:55;;;;;;;;;16.50;15.25;;;;;51.72;13.86;101031.56;5034788;28;45662;-69
2023/06/11 10:56:21;;;;;;;;;12.50;12.50;;;;;51.17;13.59;101016.09;5027298;28;45350;-67
2023/06/11 10:58:50;;;;;;;;;14.75;14.25;;;;;50.54;14.03;101019.13;5018227;28;45540;-68
2023/06/11 11:01:23;;;;;;;;;12.75;12.00;;;;;49.50;14.52;101024.81;5018413;28;45472;-68
2023/06/11 11:03:50;;;;;;;;;12.00;12.00;;;;;48.57;14.37;101019.63;5018057;28;45349;-67
2023/06/11 11:06:26;;;;;;;;;13.25;12.00;;;;;47.40;15.56;101026.88;5018356;28;45532;-67
2023/06/11 11:08:52;;;;;;;;;14.25;14.25;;;;;46.09;15.31;101020.03;5030167;28;47118;-67